createdAt,value
2023-03-07T00:02:18.590Z,166.82
2023-03-07T00:04:46.657Z,169.85
2023-03-07T00:07:14.175Z,167.63
2023-03-07T00:09:41.644Z,169.95
2023-03-07T00:12:10.721Z,163.48
2023-03-07T00:14:38.011Z,164.40
2023-03-07T00:17:05.185Z,175.43
2023-03-07T00:19:32.503Z,168.50
2023-03-07T00:22:01.744Z,168.68
2023-03-07T00:24:28.860Z,176.38
2023-03-07T00:26:56.123Z,176.68
2023-03-07T00:29:22.886Z,174.15
2023-03-07T00:31:49.762Z,168.25
2023-03-07T00:34:17.890Z,174.82
2023-03-07T00:36:44.814Z,171.30
2023-03-07T00:39:12.979Z,165.30
2023-03-07T00:41:42.551Z,166.52
2023-03-07T00:44:11.846Z,165.27
2023-03-07T00:46:38.659Z,172.63
2023-03-07T00:49:05.951Z,174.65
2023-03-07T00:51:35.406Z,170.88
2023-03-07T00:54:02.648Z,176.38
2023-03-07T00:56:31.967Z,177.43
2023-03-07T00:58:59.837Z,165.27
2023-03-07T01:01:26.782Z,177.20
2023-03-07T01:03:54.692Z,176.73
2023-03-07T01:06:24.621Z,174.73
2023-03-07T01:08:53.509Z,175.50
2023-03-07T01:11:22.486Z,172.15
2023-03-07T01:13:52.429Z,168.00
2023-03-07T01:16:23.284Z,167.13
2023-03-07T01:18:53.636Z,176.80
2023-03-07T01:21:25.066Z,174.73
2023-03-07T01:23:57.400Z,168.93
2023-03-07T01:26:27.403Z,177.30
2023-03-07T01:29:00.517Z,180.85
2023-03-07T01:31:30.441Z,181.80
2023-03-07T01:33:58.002Z,172.85
2023-03-07T01:36:33.450Z,172.93
2023-03-07T01:39:17.339Z,168.85
2023-03-07T01:42:03.954Z,175.55
2023-03-07T01:44:31.689Z,175.15
2023-03-07T01:47:00.981Z,172.43
2023-03-07T01:49:38.782Z,179.20
2023-03-07T01:52:07.039Z,184.50
2023-03-07T01:54:40.329Z,181.23
2023-03-07T01:57:07.755Z,179.13
2023-03-07T01:59:40.613Z,180.00
2023-03-07T02:02:13.955Z,176.27
2023-03-07T02:04:53.464Z,182.90
2023-03-07T02:07:25.285Z,180.60
2023-03-07T02:09:56.906Z,185.32
2023-03-07T02:12:24.922Z,184.43
2023-03-07T02:14:53.806Z,181.05
2023-03-07T02:17:25.110Z,174.52
2023-03-07T02:19:58.471Z,179.23
2023-03-07T02:22:26.300Z,172.00
2023-03-07T02:25:03.908Z,181.93
2023-03-07T02:27:37.539Z,184.52
2023-03-07T02:30:06.870Z,175.10
2023-03-07T02:32:34.331Z,182.52
2023-03-07T02:35:01.602Z,182.73
2023-03-07T02:37:37.425Z,183.55
2023-03-07T02:40:08.354Z,187.68
2023-03-07T02:42:41.715Z,181.02
2023-03-07T02:45:20.559Z,178.70
2023-03-07T02:47:48.117Z,182.40
2023-03-07T02:50:18.059Z,180.48
2023-03-07T02:52:50.054Z,179.50
2023-03-07T02:55:17.611Z,184.85
2023-03-07T02:57:54.780Z,176.55
2023-03-07T03:00:22.194Z,185.02
2023-03-07T03:02:55.047Z,170.80
2023-03-07T03:05:23.111Z,179.23
2023-03-07T03:07:53.020Z,175.55
2023-03-07T03:10:20.146Z,180.02
2023-03-07T03:12:47.895Z,172.30
2023-03-07T03:15:15.370Z,178.48
2023-03-07T03:17:44.990Z,172.38
2023-03-07T03:20:13.068Z,179.32
2023-03-07T03:22:43.889Z,178.32
2023-03-07T03:25:14.120Z,175.80
2023-03-07T03:27:43.358Z,169.85
2023-03-07T03:30:13.151Z,179.30
2023-03-07T03:32:43.751Z,178.68
2023-03-07T03:35:14.455Z,180.15
2023-03-07T03:37:42.244Z,175.90
2023-03-07T03:40:14.866Z,172.75
2023-03-07T03:42:44.541Z,178.10
2023-03-07T03:45:14.926Z,178.60
2023-03-07T03:47:42.018Z,173.68
2023-03-07T03:50:10.388Z,174.65
2023-03-07T03:52:37.471Z,187.65
2023-03-07T03:55:05.404Z,173.60
2023-03-07T03:57:32.635Z,180.18
2023-03-07T03:59:59.793Z,180.23
2023-03-07T04:02:31.136Z,176.38
2023-03-07T04:05:01.514Z,171.93
2023-03-07T04:07:29.190Z,177.18
2023-03-07T04:09:56.562Z,171.90
2023-03-07T04:12:27.050Z,173.15
2023-03-07T04:14:56.566Z,169.98
2023-03-07T04:17:24.136Z,177.68
2023-03-07T04:19:53.216Z,172.23
2023-03-07T04:22:20.358Z,168.45
2023-03-07T04:24:47.399Z,173.30
2023-03-07T04:27:14.317Z,169.32
2023-03-07T04:29:41.300Z,170.70
2023-03-07T04:32:19.999Z,172.45
2023-03-07T04:34:48.850Z,173.52
2023-03-07T04:37:15.731Z,164.65
2023-03-07T04:39:42.981Z,166.50
2023-03-07T04:42:10.880Z,164.85
2023-03-07T04:44:38.074Z,166.15
2023-03-07T04:47:05.401Z,169.80
2023-03-07T04:49:35.456Z,168.43
2023-03-07T04:52:04.745Z,165.85
2023-03-07T04:54:36.729Z,163.93
2023-03-07T04:57:04.284Z,169.02
2023-03-07T04:59:31.692Z,166.63
2023-03-07T05:01:58.926Z,168.18
2023-03-07T05:04:31.076Z,167.88
2023-03-07T05:06:58.253Z,167.02
2023-03-07T05:09:25.336Z,166.18
2023-03-07T05:11:53.708Z,170.07
2023-03-07T05:14:21.201Z,162.73
2023-03-07T05:16:48.195Z,160.00
2023-03-07T05:19:15.698Z,160.88
2023-03-07T05:21:44.474Z,163.38
2023-03-07T05:24:12.383Z,168.90
2023-03-07T05:26:41.075Z,165.15
2023-03-07T05:29:08.209Z,174.95
2023-03-07T05:31:38.247Z,168.52
2023-03-07T05:34:08.661Z,167.07
2023-03-07T05:36:36.299Z,174.00
2023-03-07T05:39:05.320Z,157.45
2023-03-07T05:41:34.922Z,163.25
2023-03-07T05:44:03.556Z,170.93
2023-03-07T05:46:30.619Z,169.05
2023-03-07T05:48:57.853Z,168.30
2023-03-07T05:51:24.858Z,167.48
2023-03-07T05:53:51.825Z,166.52
2023-03-07T05:56:19.480Z,163.00
2023-03-07T05:58:46.809Z,167.98
2023-03-07T06:01:14.644Z,171.88
2023-03-07T06:03:43.315Z,165.43
2023-03-07T06:06:11.036Z,172.70
2023-03-07T06:08:38.560Z,174.57
2023-03-07T06:11:09.941Z,168.40
2023-03-07T06:13:38.507Z,171.18
2023-03-07T06:16:08.506Z,172.80
2023-03-07T06:18:38.389Z,168.50
2023-03-07T06:21:07.659Z,170.63
2023-03-07T06:23:39.893Z,171.38
2023-03-07T06:26:12.711Z,170.77
2023-03-07T06:28:41.971Z,166.38
2023-03-07T06:31:12.281Z,186.32
2023-03-07T06:33:39.633Z,195.25
2023-03-07T06:36:09.828Z,184.25
2023-03-07T06:38:41.285Z,170.63
2023-03-07T06:41:13.859Z,214.43
2023-03-07T06:43:41.543Z,197.73
2023-03-07T06:46:14.749Z,219.95
2023-03-07T06:48:56.010Z,166.73
2023-03-07T06:51:23.830Z,165.65
2023-03-07T06:53:54.469Z,171.20
2023-03-07T06:56:21.620Z,169.07
2023-03-07T06:58:49.016Z,167.48
2023-03-07T07:01:19.172Z,164.40
2023-03-07T07:03:51.329Z,168.48
2023-03-07T07:06:21.520Z,164.52
2023-03-07T07:08:49.826Z,165.13
2023-03-07T07:11:17.295Z,168.63
2023-03-07T07:13:46.140Z,173.23
2023-03-07T07:16:19.098Z,162.15
2023-03-07T07:18:50.416Z,165.32
2023-03-07T07:21:17.768Z,170.15
2023-03-07T07:23:45.123Z,166.88
2023-03-07T07:26:12.194Z,165.15
2023-03-07T07:28:41.883Z,166.40
2023-03-07T07:31:10.301Z,169.35
2023-03-07T07:33:40.209Z,166.07
2023-03-07T07:36:09.107Z,169.43
2023-03-07T07:38:37.236Z,163.32
2023-03-07T07:41:07.548Z,167.70
2023-03-07T07:43:38.140Z,165.85
2023-03-07T07:46:15.184Z,167.07
2023-03-07T07:48:42.895Z,167.15
2023-03-07T07:51:11.645Z,167.15
2023-03-07T07:53:39.203Z,163.68
2023-03-07T07:56:07.048Z,162.93
2023-03-07T07:58:36.505Z,164.02
2023-03-07T08:01:20.261Z,165.65
2023-03-07T08:03:47.749Z,164.23
2023-03-07T08:06:20.081Z,162.10
2023-03-07T08:08:48.325Z,164.38
2023-03-07T08:11:16.990Z,163.05
2023-03-07T08:13:43.951Z,164.27
2023-03-07T08:16:17.040Z,160.50
2023-03-07T08:18:54.408Z,159.88
2023-03-07T08:21:25.777Z,157.40
2023-03-07T08:23:56.504Z,164.00
2023-03-07T08:26:23.568Z,159.77
2023-03-07T08:28:51.625Z,162.18
2023-03-07T08:31:24.167Z,154.68
2023-03-07T08:33:55.880Z,152.85
2023-03-07T08:36:23.205Z,159.43
2023-03-07T08:38:52.282Z,156.07
2023-03-07T08:41:23.014Z,162.80
2023-03-07T08:43:50.942Z,160.02
2023-03-07T08:46:18.213Z,158.73
2023-03-07T08:48:48.115Z,160.30
2023-03-07T08:51:17.537Z,160.60
2023-03-07T08:53:45.115Z,164.30
2023-03-07T08:56:15.373Z,163.18
2023-03-07T08:58:43.026Z,156.70
2023-03-07T09:01:10.521Z,162.07
2023-03-07T09:03:37.531Z,157.90
2023-03-07T09:06:06.033Z,159.52
2023-03-07T09:08:33.607Z,161.52
2023-03-07T09:11:03.489Z,159.88
2023-03-07T09:13:31.219Z,158.88
2023-03-07T09:15:58.487Z,160.65
2023-03-07T09:18:26.836Z,155.77
2023-03-07T09:20:53.814Z,152.15
2023-03-07T09:23:21.014Z,153.57
2023-03-07T09:25:48.255Z,161.95
2023-03-07T09:28:15.337Z,166.07
2023-03-07T09:30:42.414Z,152.07
2023-03-07T09:33:11.531Z,158.90
2023-03-07T09:35:39.301Z,153.95
2023-03-07T09:38:08.770Z,159.57
2023-03-07T09:40:36.037Z,155.65
2023-03-07T09:43:45.112Z,161.18
2023-03-07T09:47:22.423Z,157.15
2023-03-07T09:49:53.513Z,154.27
2023-03-07T09:52:24.985Z,156.18
2023-03-07T09:55:00.487Z,149.13
2023-03-07T09:57:33.263Z,155.75
2023-03-07T10:00:21.213Z,181.63
2023-03-07T10:03:19.840Z,175.30
2023-03-07T10:05:52.064Z,154.35
2023-03-07T10:08:26.519Z,150.95
2023-03-07T10:11:35.102Z,147.88
2023-03-07T10:14:15.217Z,150.70
2023-03-07T10:16:48.091Z,158.57
2023-03-07T10:19:33.388Z,144.70
2023-03-07T10:22:12.254Z,146.57
2023-03-07T10:24:51.577Z,153.88
2023-03-07T10:27:23.358Z,153.23
2023-03-07T10:29:53.216Z,151.52
2023-03-07T10:32:39.658Z,150.60
2023-03-07T10:35:13.926Z,146.60
2023-03-07T10:37:52.911Z,155.82
2023-03-07T10:40:25.673Z,152.15
2023-03-07T10:42:54.943Z,150.68
2023-03-07T10:45:22.983Z,152.95
2023-03-07T10:47:51.459Z,151.30
2023-03-07T10:50:54.339Z,150.27
2023-03-07T10:53:28.950Z,148.25
2023-03-07T10:56:18.243Z,149.73
2023-03-07T10:59:09.893Z,147.45
2023-03-07T11:01:39.515Z,151.68
2023-03-07T11:04:20.089Z,147.57
2023-03-07T11:07:04.726Z,150.43
2023-03-07T11:09:35.275Z,146.00
2023-03-07T11:12:06.515Z,149.85
2023-03-07T11:15:01.087Z,145.27
2023-03-07T11:17:48.580Z,149.15
2023-03-07T11:20:19.702Z,142.23
2023-03-07T11:23:11.740Z,147.82
2023-03-07T11:25:40.172Z,147.60
2023-03-07T11:28:31.768Z,149.55
2023-03-07T11:31:15.140Z,149.13
2023-03-07T11:34:13.245Z,143.80
2023-03-07T11:36:45.254Z,147.80
2023-03-07T11:39:44.657Z,143.77
2023-03-07T11:42:19.768Z,149.30
2023-03-07T11:45:09.325Z,145.63
2023-03-07T11:48:21.577Z,145.85
2023-03-07T11:50:58.291Z,146.70
2023-03-07T11:53:36.564Z,147.10
2023-03-07T11:56:17.473Z,145.57
2023-03-07T11:59:14.607Z,143.00
2023-03-07T12:01:49.625Z,148.63
2023-03-07T12:04:41.143Z,141.68
2023-03-07T12:07:32.383Z,143.88
2023-03-07T12:10:28.832Z,149.75
2023-03-07T12:13:15.874Z,144.75
2023-03-07T12:15:52.350Z,144.93
2023-03-07T12:18:48.608Z,147.32
2023-03-07T12:21:56.532Z,143.55
2023-03-07T12:24:28.162Z,140.27
2023-03-07T12:27:13.903Z,148.80
2023-03-07T12:29:53.227Z,154.20
2023-03-07T12:32:27.419Z,148.35
2023-03-07T12:35:00.908Z,152.65
2023-03-07T12:37:36.491Z,148.45
2023-03-07T12:40:10.585Z,153.27
2023-03-07T12:43:00.611Z,153.80
2023-03-07T12:45:32.247Z,151.80
2023-03-07T12:48:16.586Z,149.73
2023-03-07T12:51:18.200Z,154.95
2023-03-07T12:53:51.665Z,150.38
2023-03-07T12:56:41.858Z,151.77
2023-03-07T12:59:14.766Z,152.38
2023-03-07T13:01:49.206Z,144.70
2023-03-07T13:04:37.901Z,147.93
2023-03-07T13:07:08.216Z,141.48
2023-03-07T13:09:43.395Z,141.48
2023-03-07T13:12:31.755Z,145.77
2023-03-07T13:15:27.781Z,143.15
2023-03-07T13:18:00.881Z,149.40
2023-03-07T13:20:27.781Z,148.52
2023-03-07T13:22:55.132Z,144.70
2023-03-07T13:25:51.948Z,139.68
2023-03-07T13:28:36.064Z,144.07
2023-03-07T13:31:21.224Z,148.73
2023-03-07T13:33:48.509Z,146.27
2023-03-07T13:36:44.857Z,147.88
2023-03-07T13:39:40.724Z,146.43
2023-03-07T13:42:46.913Z,141.35
2023-03-07T13:45:38.501Z,141.57
2023-03-07T13:48:06.616Z,146.00
2023-03-07T13:50:36.772Z,138.40
2023-03-07T13:53:32.055Z,148.07
2023-03-07T13:56:17.899Z,143.38
2023-03-07T13:58:46.772Z,147.82
2023-03-07T14:01:19.522Z,143.35
2023-03-07T14:03:55.943Z,142.50
2023-03-07T14:06:25.908Z,138.10
2023-03-07T14:08:55.578Z,141.65
2023-03-07T14:11:28.571Z,146.18
2023-03-07T14:14:37.473Z,139.73
2023-03-07T14:17:12.937Z,141.07
2023-03-07T14:19:42.539Z,144.40
2023-03-07T14:22:49.428Z,148.70
2023-03-07T14:25:30.258Z,145.75
2023-03-07T14:28:19.317Z,145.55
2023-03-07T14:31:05.671Z,139.80
2023-03-07T14:33:36.002Z,139.20
2023-03-07T14:36:17.050Z,139.55
2023-03-07T14:38:47.721Z,144.60
2023-03-07T14:41:39.478Z,142.75
2023-03-07T14:45:00.499Z,142.77
2023-03-07T14:47:38.763Z,146.02
2023-03-07T14:50:19.678Z,142.27
2023-03-07T14:52:48.087Z,145.23
2023-03-07T14:55:24.570Z,144.15
2023-03-07T14:57:56.573Z,146.73
2023-03-07T15:00:32.922Z,141.88
2023-03-07T15:03:04.773Z,147.60
2023-03-07T15:05:55.066Z,148.10
2023-03-07T15:08:35.490Z,143.60
2023-03-07T15:11:16.673Z,146.38
2023-03-07T15:13:48.209Z,145.20
2023-03-07T15:16:41.768Z,146.20
2023-03-07T15:19:21.702Z,148.65
2023-03-07T15:21:56.384Z,147.00
2023-03-07T15:24:26.213Z,145.38
2023-03-07T15:26:55.713Z,142.15
2023-03-07T15:29:25.899Z,139.32
2023-03-07T15:31:58.115Z,146.80
2023-03-07T15:34:33.899Z,139.43
2023-03-07T15:37:27.235Z,149.15
2023-03-07T15:39:58.956Z,142.00
2023-03-07T15:42:26.743Z,141.05
2023-03-07T15:44:59.317Z,147.05
2023-03-07T15:47:28.714Z,144.35
2023-03-07T15:50:07.319Z,147.57
2023-03-07T15:52:39.923Z,149.20
2023-03-07T15:55:21.160Z,149.52
2023-03-07T15:57:52.928Z,150.23
2023-03-07T16:00:24.605Z,149.75
2023-03-07T16:02:53.373Z,140.85
2023-03-07T16:05:21.142Z,144.68
2023-03-07T16:07:50.024Z,144.70
2023-03-07T16:10:19.799Z,146.63
2023-03-07T16:12:48.352Z,146.02
2023-03-07T16:15:17.180Z,150.30
2023-03-07T16:17:44.514Z,150.35
2023-03-07T16:20:31.163Z,151.32
2023-03-07T16:22:58.535Z,146.02
2023-03-07T16:25:29.869Z,144.82
2023-03-07T16:27:59.152Z,139.73
2023-03-07T16:30:29.281Z,142.43
2023-03-07T16:32:56.575Z,148.90
2023-03-07T16:35:26.439Z,149.85
2023-03-07T16:37:54.715Z,149.32
2023-03-07T16:40:23.154Z,148.60
2023-03-07T16:42:51.038Z,140.05
2023-03-07T16:45:23.454Z,139.85
2023-03-07T16:47:53.137Z,147.15
2023-03-07T16:50:29.288Z,144.32
2023-03-07T16:52:56.863Z,147.32
2023-03-07T16:55:24.845Z,148.25
2023-03-07T16:57:55.148Z,143.05
2023-03-07T17:00:27.778Z,145.65
2023-03-07T17:02:56.948Z,150.00
2023-03-07T17:05:27.676Z,141.40
2023-03-07T17:07:58.930Z,143.68
2023-03-07T17:10:27.282Z,145.07
2023-03-07T17:12:56.716Z,149.43
2023-03-07T17:15:31.472Z,150.02
2023-03-07T17:18:00.644Z,147.50
2023-03-07T17:20:28.848Z,146.55
2023-03-07T17:22:57.278Z,144.57
2023-03-07T17:25:25.753Z,150.18
2023-03-07T17:28:00.563Z,153.93
2023-03-07T17:30:30.041Z,181.27
2023-03-07T17:33:03.684Z,195.23
2023-03-07T17:35:33.120Z,200.95
2023-03-07T17:38:00.335Z,150.00
2023-03-07T17:40:32.977Z,190.98
2023-03-07T17:43:01.921Z,174.15
2023-03-07T17:45:32.304Z,173.88
2023-03-07T17:47:59.762Z,173.95
2023-03-07T17:50:27.712Z,157.18
2023-03-07T17:52:55.999Z,140.23
2023-03-07T17:55:25.205Z,151.63
2023-03-07T17:57:53.073Z,154.23
2023-03-07T18:00:21.738Z,154.52
2023-03-07T18:02:49.667Z,146.65
2023-03-07T18:05:18.142Z,146.57
2023-03-07T18:07:49.564Z,144.65
2023-03-07T18:10:20.610Z,151.70
2023-03-07T18:12:49.883Z,148.27
2023-03-07T18:15:20.106Z,147.85
2023-03-07T18:17:50.042Z,152.73
2023-03-07T18:20:22.319Z,152.30
2023-03-07T18:22:49.611Z,148.18
2023-03-07T18:25:18.711Z,154.23
2023-03-07T18:27:46.435Z,149.82
2023-03-07T18:30:16.433Z,149.80
2023-03-07T18:32:44.415Z,153.73
2023-03-07T18:35:15.699Z,153.32
2023-03-07T18:37:45.240Z,157.75
2023-03-07T18:40:13.596Z,148.77
2023-03-07T18:42:42.748Z,149.50
2023-03-07T18:45:11.921Z,148.43
2023-03-07T18:47:38.810Z,154.75
2023-03-07T18:50:06.358Z,149.02
2023-03-07T18:52:33.747Z,145.75
2023-03-07T18:55:01.418Z,152.88
2023-03-07T18:57:28.786Z,152.55
2023-03-07T18:59:58.901Z,147.00
2023-03-07T19:02:25.962Z,154.00
2023-03-07T19:04:56.260Z,148.30
2023-03-07T19:07:24.616Z,153.68
2023-03-07T19:09:54.912Z,153.43
2023-03-07T19:12:24.412Z,156.05
2023-03-07T19:14:57.331Z,158.38
2023-03-07T19:17:25.931Z,151.00
2023-03-07T19:19:59.439Z,154.80
2023-03-07T19:22:30.247Z,156.25
2023-03-07T19:24:57.657Z,156.68
2023-03-07T19:27:28.153Z,155.30
2023-03-07T19:29:55.285Z,153.55
2023-03-07T19:32:22.445Z,152.38
2023-03-07T19:34:50.774Z,155.75
2023-03-07T19:37:20.369Z,151.48
2023-03-07T19:39:51.784Z,154.45
2023-03-07T19:42:19.620Z,152.82
2023-03-07T19:44:49.084Z,155.10
2023-03-07T19:47:16.369Z,152.60
2023-03-07T19:49:43.265Z,155.88
2023-03-07T19:52:10.161Z,163.25
2023-03-07T19:54:37.717Z,161.35
2023-03-07T19:57:04.722Z,162.75
2023-03-07T19:59:31.941Z,157.68
2023-03-07T20:01:59.116Z,158.38
2023-03-07T20:04:26.623Z,164.63
2023-03-07T20:06:53.984Z,161.65
2023-03-07T20:09:24.199Z,153.68
2023-03-07T20:11:51.582Z,157.02
2023-03-07T20:14:18.760Z,154.10
2023-03-07T20:16:48.318Z,159.07
2023-03-07T20:19:15.567Z,165.10
2023-03-07T20:21:49.802Z,164.43
2023-03-07T20:24:19.121Z,158.82
2023-03-07T20:26:50.013Z,160.65
2023-03-07T20:29:17.350Z,162.77
2023-03-07T20:31:44.368Z,158.52
2023-03-07T20:34:11.551Z,177.25
2023-03-07T20:36:38.955Z,161.90
2023-03-07T20:39:08.135Z,161.07
2023-03-07T20:41:35.108Z,160.75
2023-03-07T20:44:08.800Z,157.38
2023-03-07T20:46:40.179Z,162.00
2023-03-07T20:49:07.445Z,160.77
2023-03-07T20:51:36.647Z,159.80
2023-03-07T20:54:14.911Z,159.00
2023-03-07T20:56:46.019Z,164.70
2023-03-07T20:59:18.735Z,153.77
2023-03-07T21:01:46.050Z,162.18
2023-03-07T21:04:17.562Z,161.23
2023-03-07T21:06:45.697Z,163.57
2023-03-07T21:09:15.285Z,163.90
2023-03-07T21:11:45.302Z,162.05
2023-03-07T21:14:13.875Z,161.38
2023-03-07T21:16:41.143Z,158.18
2023-03-07T21:19:08.691Z,155.82
2023-03-07T21:21:39.386Z,153.57
2023-03-07T21:24:12.288Z,153.75
2023-03-07T21:26:41.907Z,157.18
2023-03-07T21:29:10.860Z,158.88
2023-03-07T21:31:40.749Z,161.65
2023-03-07T21:34:11.648Z,156.30
2023-03-07T21:36:41.226Z,155.45
2023-03-07T21:39:10.240Z,153.73
2023-03-07T21:41:37.613Z,160.75
2023-03-07T21:44:04.829Z,156.60
2023-03-07T21:46:32.207Z,150.52
2023-03-07T21:49:00.723Z,153.93
2023-03-07T21:51:28.159Z,151.18
2023-03-07T21:53:55.201Z,156.25
2023-03-07T21:56:24.052Z,154.65
2023-03-07T21:58:51.930Z,151.95
2023-03-07T22:01:23.557Z,156.25
2023-03-07T22:03:55.802Z,157.07
2023-03-07T22:06:23.917Z,155.63
2023-03-07T22:08:51.332Z,158.32
2023-03-07T22:11:21.025Z,154.68
2023-03-07T22:13:48.318Z,155.77
2023-03-07T22:16:20.835Z,151.70
2023-03-07T22:18:57.530Z,151.00
2023-03-07T22:21:27.936Z,152.60
2023-03-07T22:23:58.015Z,149.95
2023-03-07T22:26:26.110Z,154.45
2023-03-07T22:28:53.911Z,152.90
2023-03-07T22:31:21.330Z,154.55
2023-03-07T22:33:48.273Z,156.60
2023-03-07T22:36:15.920Z,155.95
2023-03-07T22:38:45.540Z,153.48
2023-03-07T22:41:15.922Z,150.90
2023-03-07T22:43:44.089Z,152.68
2023-03-07T22:46:11.978Z,144.48
2023-03-07T22:48:39.401Z,155.98
2023-03-07T22:51:13.309Z,157.43
2023-03-07T22:53:40.914Z,156.85
2023-03-07T22:56:17.766Z,158.23
2023-03-07T22:58:47.460Z,151.90
2023-03-07T23:01:27.141Z,161.48
2023-03-07T23:03:55.766Z,160.40
2023-03-07T23:06:24.601Z,153.68
2023-03-07T23:08:52.879Z,154.13
2023-03-07T23:11:25.596Z,156.05
2023-03-07T23:13:53.895Z,151.10
2023-03-07T23:16:23.691Z,156.00
2023-03-07T23:18:51.415Z,152.25
2023-03-07T23:21:23.876Z,152.57
2023-03-07T23:23:54.202Z,156.43
2023-03-07T23:26:27.530Z,148.35
2023-03-07T23:28:55.689Z,155.80
2023-03-07T23:31:25.804Z,153.30
2023-03-07T23:33:58.183Z,150.57
2023-03-07T23:36:26.357Z,147.57
2023-03-07T23:38:53.226Z,152.48
2023-03-07T23:41:21.623Z,154.93
2023-03-07T23:43:53.630Z,149.68
2023-03-07T23:46:24.493Z,160.30
2023-03-07T23:48:52.097Z,158.05
2023-03-07T23:51:19.862Z,154.20
2023-03-07T23:53:46.835Z,157.73
2023-03-07T23:56:14.456Z,155.68
2023-03-07T23:58:43.104Z,158.60
